Flight Track Log - Related Links

Times and Time Zones

All times are in EDT time to prevent confusion due to time zone crossing. See the SWA876 flight status page for this flight to view local times or setup timezone preferences in your user account.

Time Position Orientation Groundspeed Altitude Reporting Facility
EDT Latitude Longitude Course Direction KTS MPH feet Rate Location/Type
Sat 12:14:03 PM 38.8333 -77.0333 180° South 148 170 1,200  Level Potomac TRACON
Sat 12:15:03 PM 38.7667 -77.0333 180° South 211 243 3,000 1,983 Climbing Potomac TRACON
Sat 12:15:58 PM 38.7333 -77.0667 218° Southwest 226 260 5,000 1,686 Climbing Potomac TRACON
Sat 12:17:04 PM 38.7167 -77.1667 258° West 255 293 6,400 2,352 Climbing Potomac TRACON
Sat 12:18:54 PM 38.7719 -77.3117 296° West 295 339 11,900 2,612 Climbing Washington Center
Sat 12:19:54 PM 38.8058 -77.4136 293° West 300 345 13,800 2,500 Climbing Washington Center
Sat 12:20:54 PM 38.8328 -77.5503 284° West 342 394 16,900 1,627 Climbing Washington Center
Sat 12:21:52 PM 38.8539 -77.6656 283° West 371 427 17,000 303 Climbing Washington Center
Sat 12:22:53 PM 38.8828 -77.8022 285° West 371 427 17,500 1,240 Climbing Washington Center
Sat 12:23:53 PM 38.9053 -77.9336 282° West 371 427 19,500 2,132 Climbing Washington Center
Sat 12:24:54 PM 38.9317 -78.0653 284° West 376 433 21,800 2,182 Climbing Washington Center
Sat 12:25:54 PM 38.9581 -78.2050 284° West 381 438 23,900 2,085 Climbing Washington Center
Sat 12:26:52 PM 38.9650 -78.3522 274° West 404 465 25,900 1,916 Climbing Washington Center
Sat 12:27:53 PM 38.9700 -78.5044 272° West 421 484 27,700 1,672 Climbing Washington Center
Sat 12:28:54 PM 38.9744 -78.6569 272° West 427 491 29,300 1,563 Climbing Washington Center
Sat 12:29:52 PM 38.9764 -78.8172 271° West 438 504 30,800 1,678 Climbing Washington Center
Sat 12:30:52 PM 38.9825 -78.9778 273° West 451 519 32,600 1,686 Climbing Washington Center
Sat 12:31:53 PM 38.9864 -79.1328 272° West 451 519 34,200 1,475 Climbing Washington Center
Sat 12:32:54 PM 38.9897 -79.2958 272° West 451 519 35,600 1,513 Climbing Washington Center
Sat 12:33:52 PM 38.9931 -79.4564 272° West 451 519 37,200 1,210 Climbing Washington Center
Sat 12:34:53 PM 38.9983 -79.6142 273° West 446 513 38,000 397 Climbing Washington Center
Sat 12:35:53 PM 39.0019 -79.7558 272° West 454 522 38,000  Level Washington Center
Sat 12:36:46 PM 39.0014 -79.9028 270° West 437 503 38,000  Level Indianapolis Center
Sat 12:37:47 PM 39.0031 -80.0514 271° West 432 497 38,000  Level Indianapolis Center
Sat 12:38:49 PM 39.0064 -80.1950 272° West 429 494 38,000  Level Indianapolis Center
Sat 12:39:50 PM 39.0128 -80.3478 273° West 429 494 38,000  Level Indianapolis Center
Sat 12:40:52 PM 39.0428 -80.5283 282° West 431 496 38,000  Level Indianapolis Center
Sat 12:41:53 PM 39.0658 -80.6792 281° West 430 495 38,000  Level Indianapolis Center
Sat 12:42:54 PM 39.0903 -80.8286 282° West 428 493 38,000  Level Indianapolis Center
Sat 12:43:56 PM 39.1131 -80.9761 281° West 425 489 38,000  Level Indianapolis Center
Sat 12:44:57 PM 39.1364 -81.1242 282° West 422 486 38,000  Level Indianapolis Center
Sat 12:45:59 PM 39.1600 -81.2728 282° West 425 489 38,000  Level Indianapolis Center
Sat 12:47:00 PM 39.1817 -81.4197 281° West 422 486 38,000  Level Indianapolis Center
Sat 12:48:02 PM 39.2086 -81.5992 281° West 426 490 38,000  Level Indianapolis Center
Sat 12:49:03 PM 39.2297 -81.7492 280° West 428 493 38,000  Level Indianapolis Center
Sat 12:50:05 PM 39.2533 -81.9000 281° West 430 495 38,000  Level Indianapolis Center
Sat 12:51:06 PM 39.2750 -82.0531 280° West 434 499 38,000  Level Indianapolis Center
Sat 12:52:08 PM 39.2964 -82.2047 280° West 433 498 38,000  Level Indianapolis Center
Sat 12:53:10 PM 39.3186 -82.3578 281° West 434 499 38,000  Level Indianapolis Center
Sat 12:54:11 PM 39.3414 -82.5319 280° West 432 497 38,000  Level Indianapolis Center
Sat 12:55:13 PM 39.3639 -82.6839 281° West 428 493 38,000  Level Indianapolis Center
Sat 12:56:14 PM 39.3844 -82.8367 280° West 427 491 38,000  Level Indianapolis Center
Sat 12:57:16 PM 39.4064 -82.9906 281° West 430 495 38,000  Level Indianapolis Center
Sat 12:58:18 PM 39.4258 -83.1442 279° West 429 494 38,000  Level Indianapolis Center
Sat 12:59:19 PM 39.4464 -83.2964 280° West 424 488 38,000  Level Indianapolis Center
Sat 01:00:21 PM 39.4669 -83.4489 280° West 423 487 38,000  Level Indianapolis Center
Sat 01:01:23 PM 39.4867 -83.6008 280° West 422 486 38,000  Level Indianapolis Center
Sat 01:02:24 PM 39.5019 -83.7525 277° West 419 482 38,000  Level Indianapolis Center
Sat 01:03:26 PM 39.5003 -83.9019 269° West 412 474 38,000  Level Indianapolis Center
Sat 01:04:28 PM 39.4997 -84.0536 270° West 414 476 38,000  Level Indianapolis Center
Sat 01:05:29 PM 39.4975 -84.2044 269° West 414 476 38,000  Level Indianapolis Center
Sat 01:06:31 PM 39.4942 -84.3800 269° West 414 476 38,000  Level Indianapolis Center
Sat 01:07:33 PM 39.4933 -84.5322 270° West 418 481 38,000  Level Indianapolis Center
Sat 01:08:35 PM 39.4911 -84.6833 269° West 417 480 38,000  Level Indianapolis Center
Sat 01:09:36 PM 39.4889 -84.8333 269° West 416 479 38,000  Level Indianapolis Center
Sat 01:10:38 PM 39.4847 -84.9942 268° West 415 478 38,000  Level Indianapolis Center
Sat 01:11:40 PM 39.4836 -85.1431 269° West 413 475 38,000  Level Indianapolis Center
Sat 01:12:41 PM 39.4789 -85.2919 268° West 417 480 38,000  Level Indianapolis Center
Sat 01:13:43 PM 39.4767 -85.4411 269° West 415 478 38,000  Level Indianapolis Center
Sat 01:14:45 PM 39.4739 -85.5883 269° West 411 473 38,000  Level Indianapolis Center
Sat 01:15:46 PM 39.4697 -85.7378 268° West 415 478 38,000  Level Indianapolis Center
Sat 01:16:48 PM 39.4664 -85.8864 268° West 414 476 38,000  Level Indianapolis Center
Sat 01:17:50 PM 39.4617 -86.0344 268° West 412 474 38,000  Level Indianapolis Center
Sat 01:18:52 PM 39.4569 -86.2139 268° West 412 474 38,000  Level Indianapolis Center
Sat 01:19:53 PM 39.4522 -86.3631 268° West 412 474 38,000  Level Indianapolis Center
Sat 01:20:55 PM 39.4486 -86.5094 268° West 407 468 38,000  Level Indianapolis Center
Sat 01:21:57 PM 39.4433 -86.6553 267° West 405 466 38,000  Level Indianapolis Center
Sat 01:22:58 PM 39.4389 -86.7997 268° West 402 463 38,000  Level Indianapolis Center
Sat 01:24:00 PM 39.4347 -86.9456 268° West 405 466 38,000  Level Indianapolis Center
Sat 01:25:01 PM 39.4289 -87.0908 267° West 406 467 38,000  Level Indianapolis Center
Sat 01:26:03 PM 39.4231 -87.2372 267° West 408 470 38,000  Level Indianapolis Center
Sat 01:27:05 PM 39.4183 -87.3861 268° West 415 478 38,000 -49 Level Indianapolis Center
Sat 01:28:06 PM 39.4106 -87.5667 267° West 420 483 37,900 -1,220 Descending Indianapolis Center
Sat 01:29:08 PM 39.4056 -87.7175 268° West 422 486 35,500 -2,585 Descending Indianapolis Center
Sat 01:30:09 PM 39.3981 -87.8694 266° West 425 489 32,600 -2,585 Descending Indianapolis Center
Sat 01:31:11 PM 39.3911 -88.0275 267° West 439 505 30,200 -1,268 Descending Indianapolis Center
Sat 01:32:12 PM 39.3600 -88.1728 255° West 420 483 30,000 -537 Descending Indianapolis Center
Sat 01:33:14 PM 39.3219 -88.3186 251° West 414 476 29,100 -1,370 Descending Indianapolis Center
Sat 01:33:44 PM 39.2972 -88.4064 250° West 418 481 27,900 -2,087 Descending Kansas City Center
Sat 01:34:46 PM 39.2597 -88.5483 251° West 417 480 25,900 -1,790 Descending Kansas City Center
Sat 01:35:48 PM 39.2250 -88.6775 251° West 416 479 24,200 -919 Descending Kansas City Center
Sat 01:36:50 PM 39.1881 -88.8119 251° West 405 466 24,000 -97 Descending Kansas City Center
Sat 01:37:52 PM 39.1456 -88.9686 251° West 400 460 24,000 -390 Level Kansas City Center
Sat 01:38:53 PM 39.1058 -89.1144 251° West 402 463 23,200 -1,317 Descending Kansas City Center
Sat 01:39:55 PM 39.0725 -89.2506 253° West 400 460 21,300 -1,548 Descending Kansas City Center
Sat 01:40:57 PM 39.0403 -89.3997 255° West 403 464 20,000 -1,597 Descending Kansas City Center
Sat 01:41:59 PM 39.0100 -89.5350 254° West 397 457 18,000 -2,177 Descending Kansas City Center
Sat 01:43:01 PM 38.9728 -89.6728 251° West 385 443 15,500 -1,887 Descending Kansas City Center
Sat 01:44:03 PM 38.9347 -89.7906 247° West 362 417 14,100 -1,597 Descending Kansas City Center
Sat 01:45:05 PM 38.8956 -89.9006 245° Southwest 341 392 12,200 -1,790 Descending Kansas City Center
Sat 01:46:07 PM 38.8492 -89.9997 239° Southwest 330 380 10,400 -1,306 Descending Kansas City Center
Sat 01:47:09 PM 38.8300 -90.1000 256° West 299 344 9,500 -1,113 Descending Kansas City Center
Sat 01:48:11 PM 38.8069 -90.1956 253° West 284 327 8,100 -1,073 Descending Kansas City Center
Sat 01:49:12 PM 38.8256 -90.2811 286° West 269 310 7,300 -927 Descending Kansas City Center
Sat 01:50:14 PM 38.8642 -90.3706 299° West 246 283 6,200 -1,113 Descending Kansas City Center
Sat 01:51:16 PM 38.8992 -90.4419 302° West 240 276 5,000 -968 Descending Kansas City Center
Sat 01:52:18 PM 38.8614 -90.4983 229° Southwest 233 268 4,200 -1,016 Descending Kansas City Center
Sat 01:53:20 PM 38.8114 -90.4947 177° South 209 241 2,900 -1,161 Descending Kansas City Center
Sat 01:54:22 PM 38.7836 -90.4397 123° Southeast 194 223 1,800 -968 Descending Kansas City Center
Sat 01:55:24 PM 38.7614 -90.3950 122° Southeast 168 193 900 -871 Descending Kansas City Center

Login

Don't have an account? Register now (free) for customized features, flight alerts, and more!